sensor_id;sensor_type;location;lat;lon;timestamp;pressure;altitude;pressure_sealevel;temperature;humidity
54918;BME280;40818;50.562;7.454;2024-03-08T00:00:33;97745.69;;;-0.11;100.00
54918;BME280;40818;50.562;7.454;2024-03-08T00:10:38;97733.22;;;-0.22;100.00
54918;BME280;40818;50.562;7.454;2024-03-08T00:20:44;97727.97;;;-0.16;100.00
54918;BME280;40818;50.562;7.454;2024-03-08T00:30:50;97714.19;;;-0.09;100.00
54918;BME280;40818;50.562;7.454;2024-03-08T00:40:57;97704.22;;;-0.20;100.00
54918;BME280;40818;50.562;7.454;2024-03-08T00:51:00;97688.59;;;-0.06;100.00
54918;BME280;40818;50.562;7.454;2024-03-08T01:01:06;97688.66;;;-0.09;100.00
54918;BME280;40818;50.562;7.454;2024-03-08T01:11:10;97678.44;;;-0.09;100.00
54918;BME280;40818;50.562;7.454;2024-03-08T01:21:17;97660.81;;;-0.18;100.00
54918;BME280;40818;50.562;7.454;2024-03-08T01:31:20;97658.47;;;-0.27;100.00
54918;BME280;40818;50.562;7.454;2024-03-08T01:41:26;97643.00;;;-0.21;100.00
54918;BME280;40818;50.562;7.454;2024-03-08T01:51:30;97624.34;;;-0.23;100.00
54918;BME280;40818;50.562;7.454;2024-03-08T02:01:36;97610.00;;;-0.27;100.00
54918;BME280;40818;50.562;7.454;2024-03-08T02:11:40;97603.38;;;-0.35;100.00
54918;BME280;40818;50.562;7.454;2024-03-08T02:21:47;97604.41;;;-0.42;100.00
54918;BME280;40818;50.562;7.454;2024-03-08T02:31:50;97587.53;;;-0.49;100.00
54918;BME280;40818;50.562;7.454;2024-03-08T02:41:56;97590.25;;;-0.55;100.00
54918;BME280;40818;50.562;7.454;2024-03-08T02:52:00;97576.59;;;-0.53;100.00
54918;BME280;40818;50.562;7.454;2024-03-08T03:02:06;97562.19;;;-0.55;100.00
54918;BME280;40818;50.562;7.454;2024-03-08T03:12:11;97559.88;;;-0.66;100.00
54918;BME280;40818;50.562;7.454;2024-03-08T03:22:17;97568.31;;;-0.62;100.00
54918;BME280;40818;50.562;7.454;2024-03-08T03:32:20;97549.13;;;-0.79;100.00
54918;BME280;40818;50.562;7.454;2024-03-08T03:42:26;97554.31;;;-0.82;100.00
54918;BME280;40818;50.562;7.454;2024-03-08T03:52:29;97552.56;;;-0.80;100.00
54918;BME280;40818;50.562;7.454;2024-03-08T04:02:36;97530.47;;;-0.81;100.00
54918;BME280;40818;50.562;7.454;2024-03-08T04:12:39;97528.31;;;-0.98;100.00
54918;BME280;40818;50.562;7.454;2024-03-08T04:22:45;97523.34;;;-1.02;100.00
54918;BME280;40818;50.562;7.454;2024-03-08T04:32:50;97518.50;;;-1.15;100.00
54918;BME280;40818;50.562;7.454;2024-03-08T04:42:56;97516.84;;;-1.17;100.00
54918;BME280;40818;50.562;7.454;2024-03-08T04:52:59;97505.25;;;-1.29;100.00
54918;BME280;40818;50.562;7.454;2024-03-08T05:03:06;97509.00;;;-1.47;100.00
54918;BME280;40818;50.562;7.454;2024-03-08T05:13:10;97494.44;;;-1.42;100.00
54918;BME280;40818;50.562;7.454;2024-03-08T05:23:16;97483.50;;;-1.46;100.00
54918;BME280;40818;50.562;7.454;2024-03-08T05:33:20;97483.41;;;-1.41;100.00
54918;BME280;40818;50.562;7.454;2024-03-08T05:43:27;97476.59;;;-1.39;100.00
54918;BME280;40818;50.562;7.454;2024-03-08T05:53:30;97469.03;;;-1.44;100.00
54918;BME280;40818;50.562;7.454;2024-03-08T06:03:37;97468.31;;;-1.50;100.00
54918;BME280;40818;50.562;7.454;2024-03-08T06:13:45;97453.81;;;-1.47;100.00
54918;BME280;40818;50.562;7.454;2024-03-08T06:23:52;97452.66;;;-1.32;100.00
54918;BME280;40818;50.562;7.454;2024-03-08T06:33:57;97449.31;;;-0.98;100.00
54918;BME280;40818;50.562;7.454;2024-03-08T06:44:04;97436.06;;;-0.76;100.00
54918;BME280;40818;50.562;7.454;2024-03-08T06:54:08;97435.41;;;-0.50;100.00
54918;BME280;40818;50.562;7.454;2024-03-08T07:04:14;97431.31;;;-0.24;100.00
54918;BME280;40818;50.562;7.454;2024-03-08T07:14:21;97419.31;;;0.11;100.00
54918;BME280;40818;50.562;7.454;2024-03-08T07:24:27;97419.13;;;0.47;100.00
54918;BME280;40818;50.562;7.454;2024-03-08T07:34:39;97418.47;;;0.68;100.00
54918;BME280;40818;50.562;7.454;2024-03-08T07:44:46;97418.13;;;2.31;100.00
54918;BME280;40818;50.562;7.454;2024-03-08T07:54:50;97395.81;;;2.34;100.00
54918;BME280;40818;50.562;7.454;2024-03-08T08:04:57;97398.53;;;2.52;100.00
54918;BME280;40818;50.562;7.454;2024-03-08T08:15:01;97385.50;;;3.23;94.45
54918;BME280;40818;50.562;7.454;2024-03-08T08:25:08;97366.00;;;3.19;95.59
54918;BME280;40818;50.562;7.454;2024-03-08T08:35:13;97368.75;;;3.55;93.77
54918;BME280;40818;50.562;7.454;2024-03-08T08:45:21;97344.34;;;3.45;93.68
54918;BME280;40818;50.562;7.454;2024-03-08T08:55:24;97356.38;;;3.24;93.22
54918;BME280;40818;50.562;7.454;2024-03-08T09:05:32;97357.16;;;3.47;98.65
54918;BME280;40818;50.562;7.454;2024-03-08T09:15:37;97349.19;;;3.53;93.90
54918;BME280;40818;50.562;7.454;2024-03-08T09:25:45;97328.13;;;3.65;91.14
54918;BME280;40818;50.562;7.454;2024-03-08T09:35:48;97314.53;;;4.01;91.68
54918;BME280;40818;50.562;7.454;2024-03-08T09:45:55;97309.00;;;4.28;85.53
54918;BME280;40818;50.562;7.454;2024-03-08T09:55:58;97297.09;;;4.08;89.98
54918;BME280;40818;50.562;7.454;2024-03-08T10:06:07;97282.91;;;4.37;88.16
54918;BME280;40818;50.562;7.454;2024-03-08T10:16:11;97271.88;;;4.70;87.50
54918;BME280;40818;50.562;7.454;2024-03-08T10:26:18;97270.94;;;5.24;83.09
54918;BME280;40818;50.562;7.454;2024-03-08T10:36:22;97247.25;;;5.51;82.33
54918;BME280;40818;50.562;7.454;2024-03-08T10:46:30;97266.16;;;5.34;83.99
54918;BME280;40818;50.562;7.454;2024-03-08T10:56:40;97239.25;;;5.39;78.55
54918;BME280;40818;50.562;7.454;2024-03-08T11:06:46;97229.75;;;5.24;73.55
54918;BME280;40818;50.562;7.454;2024-03-08T11:16:53;97207.53;;;5.39;74.01
54918;BME280;40818;50.562;7.454;2024-03-08T11:26:59;97202.66;;;5.82;79.58
54918;BME280;40818;50.562;7.454;2024-03-08T11:37:05;97188.78;;;5.85;74.50
54918;BME280;40818;50.562;7.454;2024-03-08T11:47:12;97176.34;;;6.54;70.19
54918;BME280;40818;50.562;7.454;2024-03-08T11:57:17;97176.41;;;6.38;72.29
54918;BME280;40818;50.562;7.454;2024-03-08T12:07:24;97175.63;;;6.21;69.37
54918;BME280;40818;50.562;7.454;2024-03-08T12:17:28;97147.59;;;6.45;67.10
54918;BME280;40818;50.562;7.454;2024-03-08T12:27:36;97157.97;;;6.29;65.10
54918;BME280;40818;50.562;7.454;2024-03-08T12:37:41;97119.91;;;7.07;64.54
54918;BME280;40818;50.562;7.454;2024-03-08T12:47:47;97130.53;;;6.88;66.83
54918;BME280;40818;50.562;7.454;2024-03-08T12:57:51;97104.16;;;7.11;67.31
54918;BME280;40818;50.562;7.454;2024-03-08T13:07:57;97107.00;;;7.48;64.06
54918;BME280;40818;50.562;7.454;2024-03-08T13:18:01;97074.44;;;7.04;62.01
54918;BME280;40818;50.562;7.454;2024-03-08T13:28:08;97066.63;;;6.91;63.66
54918;BME280;40818;50.562;7.454;2024-03-08T13:38:13;97043.50;;;7.31;62.87
54918;BME280;40818;50.562;7.454;2024-03-08T13:48:21;97029.84;;;7.02;62.72
54918;BME280;40818;50.562;7.454;2024-03-08T13:58:24;97007.19;;;7.07;64.02
54918;BME280;40818;50.562;7.454;2024-03-08T14:08:30;96998.47;;;7.23;64.06
54918;BME280;40818;50.562;7.454;2024-03-08T14:18:33;96992.75;;;6.76;62.85
54918;BME280;40818;50.562;7.454;2024-03-08T14:28:39;96973.38;;;6.97;64.58
54918;BME280;40818;50.562;7.454;2024-03-08T14:38:43;96950.88;;;6.72;63.80
54918;BME280;40818;50.562;7.454;2024-03-08T14:48:50;96939.97;;;6.81;63.00
54918;BME280;40818;50.562;7.454;2024-03-08T14:58:54;96940.91;;;6.66;65.91
54918;BME280;40818;50.562;7.454;2024-03-08T15:09:02;96926.66;;;6.60;65.24
54918;BME280;40818;50.562;7.454;2024-03-08T15:19:11;96910.88;;;6.65;63.69
54918;BME280;40818;50.562;7.454;2024-03-08T15:29:18;96915.53;;;6.45;67.31
54918;BME280;40818;50.562;7.454;2024-03-08T15:39:26;96912.22;;;6.43;65.23
54918;BME280;40818;50.562;7.454;2024-03-08T15:49:36;96881.09;;;6.46;65.26
54918;BME280;40818;50.562;7.454;2024-03-08T15:59:40;96894.59;;;6.23;66.64
54918;BME280;40818;50.562;7.454;2024-03-08T16:09:46;96901.22;;;5.98;69.27
54918;BME280;40818;50.562;7.454;2024-03-08T16:19:49;96882.06;;;6.02;67.51
54918;BME280;40818;50.562;7.454;2024-03-08T16:29:55;96874.97;;;5.91;68.31
54918;BME280;40818;50.562;7.454;2024-03-08T16:39:58;96860.53;;;5.74;71.31
54918;BME280;40818;50.562;7.454;2024-03-08T16:50:06;96862.19;;;5.61;71.98
54918;BME280;40818;50.562;7.454;2024-03-08T17:00:13;96852.44;;;5.52;72.99
54918;BME280;40818;50.562;7.454;2024-03-08T17:10:21;96851.06;;;5.16;76.38
54918;BME280;40818;50.562;7.454;2024-03-08T17:20:27;96853.78;;;4.98;78.01
54918;BME280;40818;50.562;7.454;2024-03-08T17:30:34;96838.69;;;4.92;78.45
54918;BME280;40818;50.562;7.454;2024-03-08T17:40:40;96834.06;;;4.83;79.57
54918;BME280;40818;50.562;7.454;2024-03-08T17:50:47;96844.50;;;4.65;80.77
54918;BME280;40818;50.562;7.454;2024-03-08T18:00:54;96843.84;;;4.46;82.18
54918;BME280;40818;50.562;7.454;2024-03-08T18:11:00;96836.22;;;3.96;85.81
54918;BME280;40818;50.562;7.454;2024-03-08T18:21:04;96831.75;;;4.16;84.67
54918;BME280;40818;50.562;7.454;2024-03-08T18:31:12;96819.38;;;3.74;87.31
54918;BME280;40818;50.562;7.454;2024-03-08T18:41:15;96801.81;;;3.83;87.86
54918;BME280;40818;50.562;7.454;2024-03-08T18:51:21;96779.94;;;3.59;89.48
54918;BME280;40818;50.562;7.454;2024-03-08T19:01:25;96785.69;;;3.81;87.95
54918;BME280;40818;50.562;7.454;2024-03-08T19:11:34;96777.63;;;3.87;86.59
54918;BME280;40818;50.562;7.454;2024-03-08T19:21:39;96778.38;;;3.73;87.25
54918;BME280;40818;50.562;7.454;2024-03-08T19:31:47;96766.69;;;3.99;84.91
54918;BME280;40818;50.562;7.454;2024-03-08T19:41:51;96753.31;;;3.94;84.88
54918;BME280;40818;50.562;7.454;2024-03-08T19:51:57;96739.88;;;3.89;85.38
54918;BME280;40818;50.562;7.454;2024-03-08T20:02:00;96737.06;;;4.09;83.48
54918;BME280;40818;50.562;7.454;2024-03-08T20:12:06;96728.09;;;4.01;84.97
54918;BME280;40818;50.562;7.454;2024-03-08T20:22:10;96718.34;;;3.91;85.08
54918;BME280;40818;50.562;7.454;2024-03-08T20:32:16;96706.41;;;4.06;84.95
54918;BME280;40818;50.562;7.454;2024-03-08T20:42:20;96684.91;;;4.07;84.37
54918;BME280;40818;50.562;7.454;2024-03-08T20:52:26;96687.81;;;4.17;83.20
54918;BME280;40818;50.562;7.454;2024-03-08T21:02:31;96674.34;;;4.28;81.83
54918;BME280;40818;50.562;7.454;2024-03-08T21:12:37;96677.28;;;4.22;83.16
54918;BME280;40818;50.562;7.454;2024-03-08T21:22:41;96677.19;;;4.23;82.87
54918;BME280;40818;50.562;7.454;2024-03-08T21:32:50;96680.22;;;4.00;85.09
54918;BME280;40818;50.562;7.454;2024-03-08T21:42:54;96686.84;;;4.04;84.79
54918;BME280;40818;50.562;7.454;2024-03-08T21:53:01;96690.69;;;3.65;87.52
54918;BME280;40818;50.562;7.454;2024-03-08T22:03:07;96694.41;;;3.59;88.42
54918;BME280;40818;50.562;7.454;2024-03-08T22:13:14;96679.75;;;3.61;87.79
54918;BME280;40818;50.562;7.454;2024-03-08T22:23:18;96687.47;;;3.12;91.56
54918;BME280;40818;50.562;7.454;2024-03-08T22:33:24;96681.06;;;3.36;90.20
54918;BME280;40818;50.562;7.454;2024-03-08T22:43:28;96680.56;;;3.30;90.32
54918;BME280;40818;50.562;7.454;2024-03-08T22:53:38;96685.00;;;2.77;94.51
54918;BME280;40818;50.562;7.454;2024-03-08T23:03:41;96662.16;;;3.05;92.00
54918;BME280;40818;50.562;7.454;2024-03-08T23:13:48;96661.03;;;2.78;94.69
54918;BME280;40818;50.562;7.454;2024-03-08T23:23:51;96649.97;;;2.77;94.93
54918;BME280;40818;50.562;7.454;2024-03-08T23:33:57;96647.69;;;2.88;94.23
54918;BME280;40818;50.562;7.454;2024-03-08T23:44:01;96635.59;;;2.90;94.71
54918;BME280;40818;50.562;7.454;2024-03-08T23:54:09;96642.97;;;2.63;97.11
